createdAt,value
2023-03-02T00:01:02.745Z,102815.44
2023-03-02T00:04:10.699Z,102817.22
2023-03-02T00:07:19.528Z,102820.91
2023-03-02T00:10:23.217Z,102817.59
2023-03-02T00:13:30.131Z,102828.16
2023-03-02T00:16:34.225Z,102817.97
2023-03-02T00:19:38.197Z,102813.84
2023-03-02T00:22:43.916Z,102820.41
2023-03-02T00:25:47.639Z,102822.03
2023-03-02T00:28:52.905Z,102816.78
2023-03-02T00:31:56.620Z,102816.78
2023-03-02T00:35:00.340Z,102817.03
2023-03-02T00:38:03.965Z,102810.16
2023-03-02T00:41:07.613Z,102806.34
2023-03-02T00:44:17.604Z,102801.94
2023-03-02T00:47:21.680Z,102802.13
2023-03-02T00:50:25.318Z,102800.34
2023-03-02T00:53:29.038Z,102801.50
2023-03-02T00:56:33.060Z,102801.56
2023-03-02T00:59:39.660Z,102798.25
2023-03-02T01:02:44.351Z,102790.16
2023-03-02T01:05:48.852Z,102785.97
2023-03-02T01:08:52.475Z,102780.66
2023-03-02T01:11:56.327Z,102781.63
2023-03-02T01:15:01.462Z,102784.22
2023-03-02T01:18:05.417Z,102780.81
2023-03-02T01:21:13.890Z,102768.06
2023-03-02T01:24:17.793Z,102767.47
2023-03-02T01:27:22.284Z,102763.38
2023-03-02T01:30:27.405Z,102758.03
2023-03-02T01:33:31.421Z,102773.84
2023-03-02T01:36:35.364Z,102777.97
2023-03-02T01:39:39.256Z,102777.13
2023-03-02T01:42:53.842Z,102779.91
2023-03-02T01:46:02.885Z,102779.19
2023-03-02T01:49:14.148Z,102773.63
2023-03-02T01:52:19.634Z,102769.22
2023-03-02T01:55:30.677Z,102765.28
2023-03-02T01:58:38.474Z,102757.19
2023-03-02T02:01:46.793Z,102762.63
2023-03-02T02:04:51.382Z,102762.75
2023-03-02T02:07:55.165Z,102763.56
2023-03-02T02:10:59.695Z,102758.41
2023-03-02T02:14:04.774Z,102748.31
2023-03-02T02:17:11.100Z,102747.59
2023-03-02T02:20:29.692Z,102745.00
2023-03-02T02:23:44.097Z,102753.81
2023-03-02T02:26:53.246Z,102755.63
2023-03-02T02:29:59.898Z,102754.53
2023-03-02T02:33:06.213Z,102756.44
2023-03-02T02:36:17.455Z,102755.56
2023-03-02T02:39:29.669Z,102750.69
2023-03-02T02:42:40.899Z,102757.63
2023-03-02T02:45:46.047Z,102760.06
2023-03-02T02:48:49.848Z,102753.66
2023-03-02T02:51:53.822Z,102746.88
2023-03-02T02:55:00.194Z,102756.38
2023-03-02T02:58:22.150Z,102753.38
2023-03-02T03:01:27.089Z,102751.47
2023-03-02T03:04:33.860Z,102755.72
2023-03-02T03:07:37.606Z,102754.47
2023-03-02T03:10:44.473Z,102752.44
2023-03-02T03:13:50.992Z,102749.84
2023-03-02T03:16:55.009Z,102756.91
2023-03-02T03:20:06.128Z,102751.75
2023-03-02T03:23:09.788Z,102744.97
2023-03-02T03:26:13.712Z,102743.19
2023-03-02T03:29:20.293Z,102750.81
2023-03-02T03:32:25.184Z,102744.06
2023-03-02T03:35:28.889Z,102744.44
2023-03-02T03:38:32.671Z,102748.78
2023-03-02T03:41:36.297Z,102751.56
2023-03-02T03:44:41.370Z,102740.25
2023-03-02T03:47:45.030Z,102749.75
2023-03-02T03:50:48.866Z,102745.47
2023-03-02T03:54:01.384Z,102741.25
2023-03-02T03:57:05.265Z,102737.03
2023-03-02T04:00:16.268Z,102743.09
2023-03-02T04:03:20.991Z,102742.72
2023-03-02T04:06:24.637Z,102740.41
2023-03-02T04:09:29.391Z,102752.00
2023-03-02T04:12:34.206Z,102758.41
2023-03-02T04:15:42.338Z,102754.91
2023-03-02T04:18:45.983Z,102750.56
2023-03-02T04:21:53.006Z,102757.63
2023-03-02T04:24:56.653Z,102760.84
2023-03-02T04:28:00.404Z,102755.16
2023-03-02T04:31:06.007Z,102753.28
2023-03-02T04:34:10.433Z,102748.19
2023-03-02T04:37:15.974Z,102751.63
2023-03-02T04:40:19.661Z,102750.81
2023-03-02T04:43:23.867Z,102752.41
2023-03-02T04:46:30.046Z,102748.84
2023-03-02T04:49:33.865Z,102752.47
2023-03-02T04:52:37.897Z,102742.16
2023-03-02T04:55:41.848Z,102749.97
2023-03-02T04:58:45.593Z,102742.44
2023-03-02T05:01:51.618Z,102738.09
2023-03-02T05:04:55.483Z,102739.72
2023-03-02T05:07:59.448Z,102736.88
2023-03-02T05:11:03.996Z,102736.72
2023-03-02T05:14:12.637Z,102733.47
2023-03-02T05:17:17.962Z,102727.47
2023-03-02T05:20:27.478Z,102739.19
2023-03-02T05:23:31.737Z,102744.19
2023-03-02T05:26:35.786Z,102750.34
2023-03-02T05:29:39.550Z,102746.19
2023-03-02T05:32:44.591Z,102751.63
2023-03-02T05:35:49.827Z,102746.66
2023-03-02T05:38:53.665Z,102747.00
2023-03-02T05:41:57.342Z,102747.44
2023-03-02T05:45:01.036Z,102747.72
2023-03-02T05:48:07.673Z,102750.69
2023-03-02T05:51:11.330Z,102752.16
2023-03-02T05:54:16.002Z,102755.28
2023-03-02T05:57:19.781Z,102746.28
2023-03-02T06:00:24.876Z,102750.63
2023-03-02T06:03:30.147Z,102753.34
2023-03-02T06:06:34.305Z,102746.09
2023-03-02T06:09:39.477Z,102749.00
2023-03-02T06:12:43.338Z,102756.97
2023-03-02T06:15:47.189Z,102755.22
2023-03-02T06:18:52.288Z,102760.56
2023-03-02T06:21:55.956Z,102758.66
2023-03-02T06:24:59.639Z,102757.47
2023-03-02T06:28:03.273Z,102771.16
2023-03-02T06:31:07.260Z,102771.69
2023-03-02T06:34:12.204Z,102769.50
2023-03-02T06:37:16.011Z,102764.81
2023-03-02T06:40:21.649Z,102772.16
2023-03-02T06:43:25.263Z,102764.16
2023-03-02T06:46:28.890Z,102771.19
2023-03-02T06:49:34.006Z,102780.28
2023-03-02T06:52:37.803Z,102775.56
2023-03-02T06:55:41.549Z,102779.53
2023-03-02T06:58:45.391Z,102769.97
2023-03-02T07:01:50.644Z,102771.16
2023-03-02T07:04:55.851Z,102766.22
2023-03-02T07:07:59.841Z,102763.13
2023-03-02T07:11:07.640Z,102758.22
2023-03-02T07:14:11.414Z,102765.53
2023-03-02T07:17:15.160Z,102763.91
2023-03-02T07:20:20.877Z,102761.81
2023-03-02T07:23:24.640Z,102754.91
2023-03-02T07:26:28.245Z,102760.34
2023-03-02T07:29:32.105Z,102755.47
2023-03-02T07:32:36.035Z,102762.91
2023-03-02T07:35:41.321Z,102757.03
2023-03-02T07:38:45.069Z,102753.84
2023-03-02T07:41:48.971Z,102757.41
2023-03-02T07:44:54.861Z,102749.13
2023-03-02T07:47:58.666Z,102748.38
2023-03-02T07:51:06.425Z,102751.03
2023-03-02T07:54:11.127Z,102743.66
2023-03-02T07:57:16.317Z,102739.63
2023-03-02T08:00:21.946Z,102751.25
2023-03-02T08:03:25.766Z,102748.94
2023-03-02T08:06:31.847Z,102751.88
2023-03-02T08:09:35.994Z,102745.16
2023-03-02T08:12:39.662Z,102737.84
2023-03-02T08:15:43.274Z,102748.75
2023-03-02T08:18:47.020Z,102747.47
2023-03-02T08:21:51.974Z,102732.09
2023-03-02T08:24:55.742Z,102731.53
2023-03-02T08:27:59.298Z,102730.25
2023-03-02T08:31:05.227Z,102731.28
2023-03-02T08:34:09.087Z,102731.94
2023-03-02T08:37:14.045Z,102733.81
2023-03-02T08:40:17.856Z,102731.78
2023-03-02T08:43:22.916Z,102737.03
2023-03-02T08:46:26.480Z,102734.31
2023-03-02T08:49:30.260Z,102732.00
2023-03-02T08:52:36.308Z,102730.38
2023-03-02T08:55:39.922Z,102731.03
2023-03-02T08:58:43.537Z,102711.19
2023-03-02T09:01:47.241Z,102711.75
2023-03-02T09:04:50.919Z,102713.06
2023-03-02T09:07:56.087Z,102718.16
2023-03-02T09:10:59.701Z,102716.97
2023-03-02T09:14:03.422Z,102716.09
2023-03-02T09:17:07.041Z,102708.97
2023-03-02T09:20:12.533Z,102705.19
2023-03-02T09:23:17.631Z,102705.38
2023-03-02T09:26:21.464Z,102693.59
2023-03-02T09:29:25.154Z,102696.84
2023-03-02T09:32:29.135Z,102693.69
2023-03-02T09:35:32.845Z,102700.81
2023-03-02T09:38:38.134Z,102699.34
2023-03-02T09:42:19.897Z,102698.16
2023-03-02T09:45:40.906Z,102688.66
2023-03-02T09:48:56.993Z,102698.72
2023-03-02T09:52:19.311Z,102706.19
2023-03-02T09:55:29.731Z,102707.34
2023-03-02T09:58:39.603Z,102706.72
2023-03-02T10:01:50.459Z,102717.34
2023-03-02T10:04:58.415Z,102713.56
2023-03-02T10:08:02.474Z,102722.06
2023-03-02T10:11:20.358Z,102716.16
2023-03-02T10:14:32.074Z,102708.75
2023-03-02T10:17:53.083Z,102718.50
2023-03-02T10:21:04.043Z,102720.59
2023-03-02T10:24:25.660Z,102716.50
2023-03-02T10:27:40.154Z,102709.94
2023-03-02T10:30:46.995Z,102714.50
2023-03-02T10:33:51.192Z,102713.00
2023-03-02T10:36:54.863Z,102707.56
2023-03-02T10:39:59.115Z,102702.28
2023-03-02T10:43:07.256Z,102699.91
2023-03-02T10:46:14.219Z,102699.09
2023-03-02T10:49:32.102Z,102692.53
2023-03-02T10:52:36.213Z,102692.28
2023-03-02T10:55:47.879Z,102687.44
2023-03-02T10:58:54.606Z,102682.69
2023-03-02T11:02:04.418Z,102674.94
2023-03-02T11:05:31.045Z,102668.06
2023-03-02T11:08:34.804Z,102666.56
2023-03-02T11:11:38.585Z,102665.75
2023-03-02T11:14:43.945Z,102670.94
2023-03-02T11:17:52.026Z,102677.19
2023-03-02T11:21:03.219Z,102679.44
2023-03-02T11:24:15.302Z,102669.22
2023-03-02T11:27:24.808Z,102669.31
2023-03-02T11:30:35.445Z,102668.97
2023-03-02T11:33:52.236Z,102654.03
2023-03-02T11:37:16.517Z,102652.94
2023-03-02T11:40:27.309Z,102651.06
2023-03-02T11:43:31.366Z,102656.53
2023-03-02T11:46:37.006Z,102662.66
2023-03-02T11:49:48.342Z,102659.41
2023-03-02T11:52:58.438Z,102659.94
2023-03-02T11:56:02.054Z,102662.31
2023-03-02T11:59:14.502Z,102651.38
2023-03-02T12:02:21.222Z,102651.84
2023-03-02T12:05:30.774Z,102654.28
2023-03-02T12:08:40.660Z,102650.34
2023-03-02T12:11:47.650Z,102649.03
2023-03-02T12:14:52.533Z,102645.84
2023-03-02T12:17:57.779Z,102645.91
2023-03-02T12:21:11.915Z,102647.22
2023-03-02T12:24:28.049Z,102638.88
2023-03-02T12:27:38.992Z,102648.94
2023-03-02T12:30:42.780Z,102652.66
2023-03-02T12:33:52.700Z,102645.84
2023-03-02T12:37:00.987Z,102637.94
2023-03-02T12:40:39.418Z,102637.41
2023-03-02T12:43:56.506Z,102641.56
2023-03-02T12:47:03.024Z,102628.94
2023-03-02T12:50:22.082Z,102625.88
2023-03-02T12:53:25.766Z,102619.53
2023-03-02T12:56:29.632Z,102619.75
2023-03-02T12:59:34.085Z,102616.91
2023-03-02T13:02:38.321Z,102601.69
2023-03-02T13:05:43.569Z,102592.13
2023-03-02T13:08:51.511Z,102600.09
2023-03-02T13:11:55.773Z,102595.75
2023-03-02T13:15:01.304Z,102597.59
2023-03-02T13:18:05.250Z,102597.41
2023-03-02T13:21:16.087Z,102597.34
2023-03-02T13:24:33.413Z,102594.06
2023-03-02T13:27:37.122Z,102585.53
2023-03-02T13:30:47.896Z,102588.00
2023-03-02T13:33:58.015Z,102585.19
2023-03-02T13:37:03.147Z,102589.28
2023-03-02T13:40:25.146Z,102583.78
2023-03-02T13:43:40.544Z,102582.00
2023-03-02T13:46:44.124Z,102586.09
2023-03-02T13:49:47.841Z,102583.50
2023-03-02T13:52:56.527Z,102581.06
2023-03-02T13:56:01.571Z,102567.00
2023-03-02T13:59:06.782Z,102559.69
2023-03-02T14:02:25.159Z,102553.34
2023-03-02T14:05:33.373Z,102555.13
2023-03-02T14:08:38.578Z,102558.78
2023-03-02T14:11:46.630Z,102551.84
2023-03-02T14:14:51.029Z,102542.19
2023-03-02T14:17:54.722Z,102534.94
2023-03-02T14:20:59.127Z,102520.31
2023-03-02T14:24:04.451Z,102528.47
2023-03-02T14:27:10.750Z,102521.88
2023-03-02T14:30:18.840Z,102516.00
2023-03-02T14:33:23.954Z,102516.06
2023-03-02T14:36:33.118Z,102510.94
2023-03-02T14:39:41.150Z,102503.59
2023-03-02T14:42:44.854Z,102508.09
2023-03-02T14:45:48.641Z,102499.94
2023-03-02T14:48:52.289Z,102505.63
2023-03-02T14:52:02.430Z,102504.09
2023-03-02T14:55:18.390Z,102504.59
2023-03-02T14:58:32.298Z,102501.91
2023-03-02T15:01:36.092Z,102492.69
2023-03-02T15:04:40.140Z,102498.69
2023-03-02T15:07:44.146Z,102500.59
2023-03-02T15:10:50.450Z,102497.66
2023-03-02T15:13:54.422Z,102502.94
2023-03-02T15:16:58.086Z,102509.13
2023-03-02T15:20:01.695Z,102507.34
2023-03-02T15:23:05.728Z,102505.97
2023-03-02T15:26:12.445Z,102507.88
2023-03-02T15:29:16.226Z,102513.22
2023-03-02T15:32:19.995Z,102505.69
2023-03-02T15:35:23.720Z,102504.09
2023-03-02T15:38:27.754Z,102503.09
2023-03-02T15:41:33.015Z,102507.44
2023-03-02T15:44:36.882Z,102506.94
2023-03-02T15:47:40.490Z,102508.38
2023-03-02T15:50:44.170Z,102502.31
2023-03-02T15:53:48.864Z,102513.75
2023-03-02T15:56:54.146Z,102515.06
2023-03-02T15:59:57.754Z,102523.06
2023-03-02T16:03:01.641Z,102524.84
2023-03-02T16:06:05.980Z,102513.69
2023-03-02T16:09:09.883Z,102508.50
2023-03-02T16:12:14.857Z,102523.06
2023-03-02T16:15:18.747Z,102512.59
2023-03-02T16:18:22.492Z,102516.81
2023-03-02T16:21:29.251Z,102516.81
2023-03-02T16:24:33.140Z,102514.69
2023-03-02T16:27:38.206Z,102519.19
2023-03-02T16:30:44.872Z,102521.53
2023-03-02T16:33:51.516Z,102518.34
2023-03-02T16:36:55.163Z,102520.72
2023-03-02T16:39:58.823Z,102516.19
2023-03-02T16:43:06.260Z,102511.16
2023-03-02T16:46:09.953Z,102519.22
2023-03-02T16:49:15.242Z,102512.47
2023-03-02T16:52:18.917Z,102527.63
2023-03-02T16:55:22.618Z,102527.53
2023-03-02T16:58:27.615Z,102523.41
2023-03-02T17:01:31.414Z,102525.31
2023-03-02T17:04:37.257Z,102527.84
2023-03-02T17:07:41.079Z,102537.84
2023-03-02T17:10:45.789Z,102548.25
2023-03-02T17:13:50.743Z,102543.75
2023-03-02T17:16:54.790Z,102549.50
2023-03-02T17:19:58.368Z,102552.25
2023-03-02T17:23:02.895Z,102561.38
2023-03-02T17:26:06.894Z,102557.53
2023-03-02T17:29:11.996Z,102566.44
2023-03-02T17:32:15.677Z,102568.41
2023-03-02T17:35:19.587Z,102574.19
2023-03-02T17:38:23.236Z,102570.50
2023-03-02T17:41:27.017Z,102575.88
2023-03-02T17:44:34.521Z,102575.00
2023-03-02T17:47:38.199Z,102571.78
2023-03-02T17:50:42.012Z,102572.75
2023-03-02T17:53:48.006Z,102567.97
2023-03-02T17:56:51.617Z,102570.88
2023-03-02T17:59:57.500Z,102569.03
2023-03-02T18:03:01.205Z,102568.78
2023-03-02T18:06:05.289Z,102576.84
2023-03-02T18:09:09.029Z,102574.44
2023-03-02T18:12:12.721Z,102569.78
2023-03-02T18:15:17.997Z,102579.34
2023-03-02T18:18:21.830Z,102568.72
2023-03-02T18:21:25.509Z,102571.16
2023-03-02T18:24:29.325Z,102572.81
2023-03-02T18:27:33.493Z,102579.97
2023-03-02T18:30:38.928Z,102583.41
2023-03-02T18:33:42.641Z,102578.41
2023-03-02T18:36:46.427Z,102578.97
2023-03-02T18:39:50.165Z,102575.56
2023-03-02T18:42:54.154Z,102571.28
2023-03-02T18:45:59.632Z,102573.28
2023-03-02T18:49:04.551Z,102565.38
2023-03-02T18:52:09.904Z,102565.28
2023-03-02T18:55:13.931Z,102569.84
2023-03-02T18:58:20.818Z,102579.44
2023-03-02T19:01:25.842Z,102579.72
2023-03-02T19:04:30.844Z,102582.38
2023-03-02T19:07:34.648Z,102576.53
2023-03-02T19:10:42.447Z,102566.00
2023-03-02T19:13:46.195Z,102572.59
2023-03-02T19:16:51.815Z,102573.41
2023-03-02T19:19:55.448Z,102577.16
2023-03-02T19:22:59.061Z,102580.88
2023-03-02T19:26:05.390Z,102579.34
2023-03-02T19:29:09.279Z,102569.16
2023-03-02T19:32:15.230Z,102566.31
2023-03-02T19:35:19.483Z,102568.13
2023-03-02T19:38:24.051Z,102576.97
2023-03-02T19:41:32.369Z,102580.63
2023-03-02T19:44:37.302Z,102581.69
2023-03-02T19:47:43.125Z,102593.06
2023-03-02T19:50:47.056Z,102602.59
2023-03-02T19:53:51.511Z,102604.81
2023-03-02T19:56:57.106Z,102597.25
2023-03-02T20:00:00.819Z,102603.63
2023-03-02T20:03:08.517Z,102592.53
2023-03-02T20:06:12.233Z,102591.84
2023-03-02T20:09:19.850Z,102582.31
2023-03-02T20:12:23.583Z,102577.38
2023-03-02T20:15:28.760Z,102585.84
2023-03-02T20:18:35.101Z,102582.47
2023-03-02T20:21:39.061Z,102589.44
2023-03-02T20:24:44.221Z,102590.88
2023-03-02T20:27:49.109Z,102588.47
2023-03-02T20:30:58.433Z,102595.22
2023-03-02T20:34:07.856Z,102591.72
2023-03-02T20:37:14.779Z,102600.41
2023-03-02T20:40:20.333Z,102609.91
2023-03-02T20:43:24.218Z,102606.38
2023-03-02T20:46:33.748Z,102601.41
2023-03-02T20:49:40.155Z,102602.16
2023-03-02T20:52:43.981Z,102597.00
2023-03-02T20:55:48.011Z,102592.88
2023-03-02T20:58:51.999Z,102591.06
2023-03-02T21:01:55.852Z,102587.59
2023-03-02T21:05:01.016Z,102591.06
2023-03-02T21:08:05.147Z,102587.63
2023-03-02T21:11:10.946Z,102576.72
2023-03-02T21:14:15.199Z,102581.94
2023-03-02T21:17:18.899Z,102582.69
2023-03-02T21:20:27.410Z,102579.34
2023-03-02T21:23:31.401Z,102577.72
2023-03-02T21:26:36.620Z,102590.53
2023-03-02T21:29:40.442Z,102591.31
2023-03-02T21:32:45.709Z,102579.50
2023-03-02T21:35:50.702Z,102581.03
2023-03-02T21:38:54.664Z,102594.00
2023-03-02T21:41:58.738Z,102588.78
2023-03-02T21:45:02.991Z,102592.13
2023-03-02T21:48:08.164Z,102586.25
2023-03-02T21:51:15.130Z,102588.06
2023-03-02T21:54:18.854Z,102587.19
2023-03-02T21:57:22.552Z,102588.97
2023-03-02T22:00:29.637Z,102582.22
2023-03-02T22:03:33.337Z,102577.81
2023-03-02T22:06:38.750Z,102589.25
2023-03-02T22:09:42.455Z,102583.88
2023-03-02T22:12:46.293Z,102592.56
2023-03-02T22:15:52.446Z,102586.38
2023-03-02T22:18:59.632Z,102586.38
2023-03-02T22:22:17.843Z,102570.16
2023-03-02T22:25:21.746Z,102582.69
2023-03-02T22:28:28.253Z,102580.13
2023-03-02T22:31:32.536Z,102582.69
2023-03-02T22:34:38.244Z,102593.06
2023-03-02T22:37:43.161Z,102580.16
2023-03-02T22:40:46.970Z,102578.50
2023-03-02T22:43:53.000Z,102581.03
2023-03-02T22:46:58.475Z,102576.75
2023-03-02T22:50:21.680Z,102575.72
2023-03-02T22:53:31.487Z,102567.06
2023-03-02T22:56:38.371Z,102568.84
2023-03-02T22:59:42.050Z,102573.13
2023-03-02T23:02:47.397Z,102568.16
2023-03-02T23:05:53.675Z,102568.72
2023-03-02T23:09:02.214Z,102573.09
2023-03-02T23:12:17.869Z,102575.47
2023-03-02T23:15:22.684Z,102571.38
2023-03-02T23:18:29.661Z,102561.75
2023-03-02T23:21:41.561Z,102554.13
2023-03-02T23:24:46.772Z,102562.59
2023-03-02T23:27:50.380Z,102566.09
2023-03-02T23:30:53.920Z,102570.41
2023-03-02T23:33:57.707Z,102569.50
2023-03-02T23:37:01.943Z,102574.56
2023-03-02T23:40:09.056Z,102566.00
2023-03-02T23:43:12.610Z,102562.59
2023-03-02T23:46:16.523Z,102564.56
2023-03-02T23:49:20.574Z,102567.97
2023-03-02T23:52:24.213Z,102572.41
2023-03-02T23:55:29.427Z,102569.63
2023-03-02T23:58:33.300Z,102565.19
